sensor_id;sensor_type;location;lat;lon;timestamp;pressure;altitude;pressure_sealevel;temperature;humidity
70930;BME280;58588;48.102;19.682;2023-04-27T00:01:51;99621.97;;;0.71;100.00
70930;BME280;58588;48.102;19.682;2023-04-27T00:04:54;99619.22;;;0.73;100.00
70930;BME280;58588;48.102;19.682;2023-04-27T00:07:56;99622.09;;;0.70;100.00
70930;BME280;58588;48.102;19.682;2023-04-27T00:11:00;99622.19;;;0.57;100.00
70930;BME280;58588;48.102;19.682;2023-04-27T00:14:02;99627.38;;;0.59;100.00
70930;BME280;58588;48.102;19.682;2023-04-27T00:17:04;99631.00;;;0.58;100.00
70930;BME280;58588;48.102;19.682;2023-04-27T00:20:07;99618.34;;;0.50;100.00
70930;BME280;58588;48.102;19.682;2023-04-27T00:23:11;99626.16;;;0.40;100.00
70930;BME280;58588;48.102;19.682;2023-04-27T00:26:15;99622.53;;;0.41;100.00
70930;BME280;58588;48.102;19.682;2023-04-27T00:29:17;99624.72;;;0.36;100.00
70930;BME280;58588;48.102;19.682;2023-04-27T00:32:19;99619.41;;;0.36;100.00
70930;BME280;58588;48.102;19.682;2023-04-27T00:35:21;99615.69;;;0.39;100.00
70930;BME280;58588;48.102;19.682;2023-04-27T00:38:23;99616.63;;;0.38;100.00
70930;BME280;58588;48.102;19.682;2023-04-27T00:41:27;99620.97;;;0.39;100.00
70930;BME280;58588;48.102;19.682;2023-04-27T00:44:29;99612.53;;;0.34;100.00
70930;BME280;58588;48.102;19.682;2023-04-27T00:47:32;99625.75;;;0.22;100.00
70930;BME280;58588;48.102;19.682;2023-04-27T00:50:34;99627.66;;;0.09;100.00
70930;BME280;58588;48.102;19.682;2023-04-27T00:53:38;99622.84;;;0.14;100.00
70930;BME280;58588;48.102;19.682;2023-04-27T00:56:42;99625.13;;;0.08;100.00
70930;BME280;58588;48.102;19.682;2023-04-27T00:59:45;99628.38;;;0.11;100.00
70930;BME280;58588;48.102;19.682;2023-04-27T01:02:47;99631.66;;;0.15;100.00
70930;BME280;58588;48.102;19.682;2023-04-27T01:05:50;99638.88;;;0.24;100.00
70930;BME280;58588;48.102;19.682;2023-04-27T01:08:52;99639.63;;;0.26;100.00
70930;BME280;58588;48.102;19.682;2023-04-27T01:11:56;99632.53;;;0.26;100.00
70930;BME280;58588;48.102;19.682;2023-04-27T01:14:58;99637.56;;;0.18;100.00
70930;BME280;58588;48.102;19.682;2023-04-27T01:18:01;99639.22;;;0.08;100.00
70930;BME280;58588;48.102;19.682;2023-04-27T01:21:04;99635.59;;;0.09;100.00
70930;BME280;58588;48.102;19.682;2023-04-27T01:24:08;99641.16;;;0.06;100.00
70930;BME280;58588;48.102;19.682;2023-04-27T01:27:11;99640.06;;;0.09;100.00
70930;BME280;58588;48.102;19.682;2023-04-27T01:30:13;99641.72;;;-0.02;100.00
70930;BME280;58588;48.102;19.682;2023-04-27T01:33:15;99640.72;;;-0.12;100.00
70930;BME280;58588;48.102;19.682;2023-04-27T01:36:17;99648.38;;;-0.20;100.00
70930;BME280;58588;48.102;19.682;2023-04-27T01:39:21;99647.88;;;-0.25;100.00
70930;BME280;58588;48.102;19.682;2023-04-27T01:42:23;99655.09;;;-0.27;100.00
70930;BME280;58588;48.102;19.682;2023-04-27T01:45:25;99652.19;;;-0.35;100.00
70930;BME280;58588;48.102;19.682;2023-04-27T01:48:27;99650.13;;;-0.32;100.00
70930;BME280;58588;48.102;19.682;2023-04-27T01:51:29;99661.22;;;-0.27;100.00
70930;BME280;58588;48.102;19.682;2023-04-27T01:54:33;99665.91;;;-0.30;100.00
70930;BME280;58588;48.102;19.682;2023-04-27T01:57:36;99668.13;;;-0.24;100.00
70930;BME280;58588;48.102;19.682;2023-04-27T02:00:38;99669.56;;;-0.20;100.00
70930;BME280;58588;48.102;19.682;2023-04-27T02:03:40;99667.50;;;-0.28;100.00
70930;BME280;58588;48.102;19.682;2023-04-27T02:06:42;99675.38;;;-0.39;100.00
70930;BME280;58588;48.102;19.682;2023-04-27T02:09:45;99674.41;;;-0.38;100.00
70930;BME280;58588;48.102;19.682;2023-04-27T02:12:47;99680.91;;;-0.42;100.00
70930;BME280;58588;48.102;19.682;2023-04-27T02:15:49;99681.97;;;-0.44;100.00
70930;BME280;58588;48.102;19.682;2023-04-27T02:18:51;99684.84;;;-0.47;100.00
70930;BME280;58588;48.102;19.682;2023-04-27T02:21:54;99680.72;;;-0.51;100.00
70930;BME280;58588;48.102;19.682;2023-04-27T02:24:58;99674.72;;;-0.53;100.00
70930;BME280;58588;48.102;19.682;2023-04-27T02:28:00;99677.88;;;-0.61;100.00
70930;BME280;58588;48.102;19.682;2023-04-27T02:31:02;99682.22;;;-0.60;100.00
70930;BME280;58588;48.102;19.682;2023-04-27T02:34:04;99678.25;;;-0.66;100.00
70930;BME280;58588;48.102;19.682;2023-04-27T02:37:06;99680.97;;;-0.67;100.00
70930;BME280;58588;48.102;19.682;2023-04-27T02:40:10;99684.03;;;-0.61;100.00
70930;BME280;58588;48.102;19.682;2023-04-27T02:43:12;99680.88;;;-0.66;100.00
70930;BME280;58588;48.102;19.682;2023-04-27T02:46:14;99682.50;;;-0.76;100.00
70930;BME280;58588;48.102;19.682;2023-04-27T02:49:16;99685.88;;;-0.74;100.00
70930;BME280;58588;48.102;19.682;2023-04-27T02:52:18;99689.06;;;-0.82;100.00
70930;BME280;58588;48.102;19.682;2023-04-27T02:55:22;99695.19;;;-0.81;100.00
70930;BME280;58588;48.102;19.682;2023-04-27T02:58:24;99691.47;;;-0.78;100.00
70930;BME280;58588;48.102;19.682;2023-04-27T03:01:26;99688.44;;;-0.85;100.00
70930;BME280;58588;48.102;19.682;2023-04-27T03:04:28;99688.03;;;-1.04;100.00
70930;BME280;58588;48.102;19.682;2023-04-27T03:07:30;99686.13;;;-1.02;100.00
70930;BME280;58588;48.102;19.682;2023-04-27T03:10:33;99683.28;;;-0.99;100.00
70930;BME280;58588;48.102;19.682;2023-04-27T03:13:35;99691.41;;;-0.90;100.00
70930;BME280;58588;48.102;19.682;2023-04-27T03:16:41;99696.91;;;-0.93;100.00
70930;BME280;58588;48.102;19.682;2023-04-27T03:19:43;99690.47;;;-0.89;100.00
70930;BME280;58588;48.102;19.682;2023-04-27T03:22:45;99702.94;;;-0.91;100.00
70930;BME280;58588;48.102;19.682;2023-04-27T03:25:48;99700.72;;;-0.97;100.00
70930;BME280;58588;48.102;19.682;2023-04-27T03:28:50;99706.34;;;-1.01;100.00
70930;BME280;58588;48.102;19.682;2023-04-27T03:31:52;99703.78;;;-1.03;100.00
70930;BME280;58588;48.102;19.682;2023-04-27T03:34:55;99708.56;;;-1.08;100.00
70930;BME280;58588;48.102;19.682;2023-04-27T03:37:57;99709.94;;;-1.15;100.00
70930;BME280;58588;48.102;19.682;2023-04-27T03:41:00;99701.28;;;-1.17;100.00
70930;BME280;58588;48.102;19.682;2023-04-27T03:44:03;99712.69;;;-1.04;100.00
70930;BME280;58588;48.102;19.682;2023-04-27T03:47:05;99710.56;;;-0.99;100.00
70930;BME280;58588;48.102;19.682;2023-04-27T03:50:09;99714.38;;;-1.03;100.00
70930;BME280;58588;48.102;19.682;2023-04-27T03:53:12;99728.44;;;-1.02;100.00
70930;BME280;58588;48.102;19.682;2023-04-27T03:56:15;99732.91;;;-1.03;100.00
70930;BME280;58588;48.102;19.682;2023-04-27T03:59:18;99727.81;;;-0.93;100.00
70930;BME280;58588;48.102;19.682;2023-04-27T04:02:20;99733.09;;;-0.93;100.00
70930;BME280;58588;48.102;19.682;2023-04-27T04:05:22;99730.34;;;-0.92;100.00
70930;BME280;58588;48.102;19.682;2023-04-27T04:08:24;99731.28;;;-0.80;100.00
70930;BME280;58588;48.102;19.682;2023-04-27T04:11:28;99737.63;;;-0.70;100.00
70930;BME280;58588;48.102;19.682;2023-04-27T04:14:30;99739.72;;;-0.62;100.00
70930;BME280;58588;48.102;19.682;2023-04-27T04:17:32;99739.13;;;-0.66;100.00
70930;BME280;58588;48.102;19.682;2023-04-27T04:20:34;99735.06;;;-0.59;100.00
70930;BME280;58588;48.102;19.682;2023-04-27T04:23:36;99742.03;;;-0.45;100.00
70930;BME280;58588;48.102;19.682;2023-04-27T04:26:41;99745.56;;;-0.70;100.00
70930;BME280;58588;48.102;19.682;2023-04-27T04:29:43;99747.66;;;-0.62;100.00
70930;BME280;58588;48.102;19.682;2023-04-27T04:32:45;99754.34;;;-0.57;100.00
70930;BME280;58588;48.102;19.682;2023-04-27T04:35:47;99748.59;;;-0.50;100.00
70930;BME280;58588;48.102;19.682;2023-04-27T04:38:51;99756.78;;;-0.53;100.00
70930;BME280;58588;48.102;19.682;2023-04-27T04:41:55;99756.44;;;-0.49;100.00
70930;BME280;58588;48.102;19.682;2023-04-27T04:44:57;99762.03;;;-0.41;100.00
70930;BME280;58588;48.102;19.682;2023-04-27T04:47:59;99761.38;;;-0.32;100.00
70930;BME280;58588;48.102;19.682;2023-04-27T04:51:03;99767.59;;;-0.20;100.00
70930;BME280;58588;48.102;19.682;2023-04-27T04:54:05;99767.66;;;-0.09;100.00
70930;BME280;58588;48.102;19.682;2023-04-27T04:57:09;99775.50;;;-0.07;100.00
70930;BME280;58588;48.102;19.682;2023-04-27T05:00:12;99768.81;;;0.00;100.00
70930;BME280;58588;48.102;19.682;2023-04-27T05:03:14;99781.44;;;-0.04;100.00
70930;BME280;58588;48.102;19.682;2023-04-27T05:06:16;99765.41;;;0.22;100.00
70930;BME280;58588;48.102;19.682;2023-04-27T05:09:18;99771.88;;;0.42;100.00
70930;BME280;58588;48.102;19.682;2023-04-27T05:12:22;99778.53;;;0.47;100.00
70930;BME280;58588;48.102;19.682;2023-04-27T05:15:24;99776.88;;;0.58;100.00
70930;BME280;58588;48.102;19.682;2023-04-27T05:18:26;99780.53;;;0.68;100.00
70930;BME280;58588;48.102;19.682;2023-04-27T05:21:28;99779.59;;;0.80;100.00
70930;BME280;58588;48.102;19.682;2023-04-27T05:24:32;99786.00;;;0.89;100.00
70930;BME280;58588;48.102;19.682;2023-04-27T05:27:35;99783.50;;;0.98;100.00
70930;BME280;58588;48.102;19.682;2023-04-27T05:30:37;99786.41;;;1.06;100.00
70930;BME280;58588;48.102;19.682;2023-04-27T05:33:39;99792.13;;;1.36;100.00
70930;BME280;58588;48.102;19.682;2023-04-27T05:36:42;99791.03;;;1.49;100.00
70930;BME280;58588;48.102;19.682;2023-04-27T05:39:44;99794.44;;;1.63;100.00
70930;BME280;58588;48.102;19.682;2023-04-27T05:42:47;99795.34;;;1.84;100.00
70930;BME280;58588;48.102;19.682;2023-04-27T05:45:50;99793.41;;;1.97;100.00
70930;BME280;58588;48.102;19.682;2023-04-27T05:48:52;99783.97;;;2.04;100.00
70930;BME280;58588;48.102;19.682;2023-04-27T05:51:54;99793.13;;;2.11;100.00
70930;BME280;58588;48.102;19.682;2023-04-27T05:54:58;99791.59;;;2.41;100.00
70930;BME280;58588;48.102;19.682;2023-04-27T05:58:02;99797.97;;;2.50;100.00
70930;BME280;58588;48.102;19.682;2023-04-27T06:01:04;99805.47;;;2.77;100.00
70930;BME280;58588;48.102;19.682;2023-04-27T06:04:06;99794.88;;;2.86;100.00
70930;BME280;58588;48.102;19.682;2023-04-27T06:07:09;99802.56;;;3.01;100.00
70930;BME280;58588;48.102;19.682;2023-04-27T06:10:11;99802.81;;;3.18;100.00
70930;BME280;58588;48.102;19.682;2023-04-27T06:13:15;99807.72;;;3.44;100.00
70930;BME280;58588;48.102;19.682;2023-04-27T06:16:17;99803.00;;;3.57;100.00
70930;BME280;58588;48.102;19.682;2023-04-27T06:19:20;99803.19;;;3.65;100.00
70930;BME280;58588;48.102;19.682;2023-04-27T06:22:22;99814.94;;;3.93;100.00
70930;BME280;58588;48.102;19.682;2023-04-27T06:25:24;99812.19;;;4.14;100.00
70930;BME280;58588;48.102;19.682;2023-04-27T06:28:28;99816.59;;;4.35;100.00
70930;BME280;58588;48.102;19.682;2023-04-27T06:31:30;99821.81;;;4.46;100.00
70930;BME280;58588;48.102;19.682;2023-04-27T06:34:34;99817.59;;;4.82;100.00
70930;BME280;58588;48.102;19.682;2023-04-27T06:37:36;99826.31;;;4.94;100.00
70930;BME280;58588;48.102;19.682;2023-04-27T06:40:38;99817.28;;;5.14;100.00
70930;BME280;58588;48.102;19.682;2023-04-27T06:43:42;99813.97;;;5.49;100.00
70930;BME280;58588;48.102;19.682;2023-04-27T06:46:58;99815.56;;;5.70;100.00
70930;BME280;58588;48.102;19.682;2023-04-27T06:50:00;99804.56;;;5.82;100.00
70930;BME280;58588;48.102;19.682;2023-04-27T06:53:03;99815.44;;;6.08;100.00
70930;BME280;58588;48.102;19.682;2023-04-27T06:56:09;99813.84;;;6.15;100.00
70930;BME280;58588;48.102;19.682;2023-04-27T06:59:13;99807.69;;;6.51;100.00
70930;BME280;58588;48.102;19.682;2023-04-27T07:02:15;99812.75;;;6.71;100.00
70930;BME280;58588;48.102;19.682;2023-04-27T07:05:17;99811.28;;;6.95;100.00
70930;BME280;58588;48.102;19.682;2023-04-27T07:08:19;99813.13;;;7.38;100.00
70930;BME280;58588;48.102;19.682;2023-04-27T07:11:21;99812.06;;;7.31;100.00
70930;BME280;58588;48.102;19.682;2023-04-27T07:14:25;99809.75;;;7.62;100.00
70930;BME280;58588;48.102;19.682;2023-04-27T07:17:27;99817.59;;;7.90;100.00
70930;BME280;58588;48.102;19.682;2023-04-27T07:20:29;99814.47;;;8.02;94.21
70930;BME280;58588;48.102;19.682;2023-04-27T07:23:31;99807.69;;;8.32;93.89
70930;BME280;58588;48.102;19.682;2023-04-27T07:26:33;99811.16;;;8.59;85.22
70930;BME280;58588;48.102;19.682;2023-04-27T07:29:37;99810.13;;;8.60;84.26
70930;BME280;58588;48.102;19.682;2023-04-27T07:32:39;99811.84;;;8.85;82.60
70930;BME280;58588;48.102;19.682;2023-04-27T07:35:42;99808.47;;;8.75;79.60
70930;BME280;58588;48.102;19.682;2023-04-27T07:38:44;99819.75;;;9.11;77.81
70930;BME280;58588;48.102;19.682;2023-04-27T07:41:46;99810.13;;;9.50;78.95
70930;BME280;58588;48.102;19.682;2023-04-27T07:44:50;99809.09;;;9.59;77.18
70930;BME280;58588;48.102;19.682;2023-04-27T07:47:53;99810.34;;;9.96;71.49
70930;BME280;58588;48.102;19.682;2023-04-27T07:50:55;99811.16;;;10.04;71.74
70930;BME280;58588;48.102;19.682;2023-04-27T07:53:58;99803.06;;;10.04;68.78
70930;BME280;58588;48.102;19.682;2023-04-27T07:57:00;99807.38;;;10.13;65.87
70930;BME280;58588;48.102;19.682;2023-04-27T08:00:04;99805.94;;;10.42;61.13
70930;BME280;58588;48.102;19.682;2023-04-27T08:03:08;99799.78;;;10.79;62.99
70930;BME280;58588;48.102;19.682;2023-04-27T08:06:11;99807.72;;;10.81;62.15
70930;BME280;58588;48.102;19.682;2023-04-27T08:09:13;99799.66;;;10.72;55.74
70930;BME280;58588;48.102;19.682;2023-04-27T08:12:15;99798.41;;;10.83;58.74
70930;BME280;58588;48.102;19.682;2023-04-27T08:15:19;99805.97;;;11.11;60.05
70930;BME280;58588;48.102;19.682;2023-04-27T08:18:21;99798.28;;;11.37;50.32
70930;BME280;58588;48.102;19.682;2023-04-27T08:21:23;99792.06;;;11.37;51.41
70930;BME280;58588;48.102;19.682;2023-04-27T08:24:27;99791.81;;;11.61;50.61
70930;BME280;58588;48.102;19.682;2023-04-27T08:27:29;99802.66;;;12.05;51.71
70930;BME280;58588;48.102;19.682;2023-04-27T08:30:34;99798.00;;;12.50;55.46
70930;BME280;58588;48.102;19.682;2023-04-27T08:33:36;99806.72;;;12.16;48.11
70930;BME280;58588;48.102;19.682;2023-04-27T08:36:38;99798.34;;;12.26;47.95
70930;BME280;58588;48.102;19.682;2023-04-27T08:39:40;99796.50;;;12.12;43.02
70930;BME280;58588;48.102;19.682;2023-04-27T08:42:54;99799.66;;;12.51;45.81
70930;BME280;58588;48.102;19.682;2023-04-27T08:45:57;99802.09;;;12.46;46.62
70930;BME280;58588;48.102;19.682;2023-04-27T08:48:59;99799.56;;;12.59;43.85
70930;BME280;58588;48.102;19.682;2023-04-27T08:52:01;99804.97;;;12.09;45.62
70930;BME280;58588;48.102;19.682;2023-04-27T08:55:05;99798.91;;;11.92;48.30
70930;BME280;58588;48.102;19.682;2023-04-27T08:58:07;99790.91;;;11.98;45.23
70930;BME280;58588;48.102;19.682;2023-04-27T09:01:11;99789.19;;;12.27;47.76
70930;BME280;58588;48.102;19.682;2023-04-27T09:04:14;99797.13;;;12.86;46.91
70930;BME280;58588;48.102;19.682;2023-04-27T09:07:17;99795.03;;;12.45;43.62
70930;BME280;58588;48.102;19.682;2023-04-27T09:10:19;99792.84;;;12.55;43.18
70930;BME280;58588;48.102;19.682;2023-04-27T09:13:22;99785.56;;;13.42;42.38
70930;BME280;58588;48.102;19.682;2023-04-27T09:16:27;99785.50;;;13.63;45.76
70930;BME280;58588;48.102;19.682;2023-04-27T09:19:29;99790.50;;;13.31;43.22
70930;BME280;58588;48.102;19.682;2023-04-27T09:22:41;99775.72;;;13.34;41.56
70930;BME280;58588;48.102;19.682;2023-04-27T09:25:43;99774.47;;;13.36;40.81
70930;BME280;58588;48.102;19.682;2023-04-27T09:28:47;99764.63;;;13.29;40.53
70930;BME280;58588;48.102;19.682;2023-04-27T09:31:51;99764.81;;;13.06;40.72
70930;BME280;58588;48.102;19.682;2023-04-27T09:34:53;99775.06;;;13.10;46.20
70930;BME280;58588;48.102;19.682;2023-04-27T09:37:55;99770.19;;;13.49;43.87
70930;BME280;58588;48.102;19.682;2023-04-27T09:40:58;99759.56;;;13.47;43.56
70930;BME280;58588;48.102;19.682;2023-04-27T09:44:00;99753.41;;;13.32;42.97
70930;BME280;58588;48.102;19.682;2023-04-27T09:47:05;99762.41;;;13.39;41.88
70930;BME280;58588;48.102;19.682;2023-04-27T09:50:10;99764.94;;;13.75;41.32
70930;BME280;58588;48.102;19.682;2023-04-27T09:53:14;99763.97;;;13.89;39.00
70930;BME280;58588;48.102;19.682;2023-04-27T09:56:26;99755.53;;;14.12;39.98
70930;BME280;58588;48.102;19.682;2023-04-27T09:59:45;99748.84;;;15.49;40.40
70930;BME280;58588;48.102;19.682;2023-04-27T10:03:02;99746.25;;;15.87;39.75
70930;BME280;58588;48.102;19.682;2023-04-27T10:06:36;99749.91;;;15.41;40.46
70930;BME280;58588;48.102;19.682;2023-04-27T10:09:47;99754.06;;;15.11;37.54
70930;BME280;58588;48.102;19.682;2023-04-27T10:13:00;99748.41;;;14.66;42.50
70930;BME280;58588;48.102;19.682;2023-04-27T10:16:14;99749.75;;;14.29;41.31
70930;BME280;58588;48.102;19.682;2023-04-27T10:19:20;99747.44;;;14.26;39.72
70930;BME280;58588;48.102;19.682;2023-04-27T10:22:23;99753.72;;;13.85;42.57
70930;BME280;58588;48.102;19.682;2023-04-27T10:25:27;99751.41;;;13.47;43.04
70930;BME280;58588;48.102;19.682;2023-04-27T10:28:37;99742.09;;;13.50;44.79
70930;BME280;58588;48.102;19.682;2023-04-27T10:31:42;99747.44;;;13.78;45.28
70930;BME280;58588;48.102;19.682;2023-04-27T10:34:46;99750.16;;;13.78;44.59
70930;BME280;58588;48.102;19.682;2023-04-27T10:37:48;99751.19;;;13.77;43.41
70930;BME280;58588;48.102;19.682;2023-04-27T10:40:55;99747.41;;;13.71;41.94
70930;BME280;58588;48.102;19.682;2023-04-27T10:44:12;99743.19;;;13.62;44.44
70930;BME280;58588;48.102;19.682;2023-04-27T10:47:15;99748.16;;;13.93;41.82
70930;BME280;58588;48.102;19.682;2023-04-27T10:50:21;99747.84;;;14.23;39.68
70930;BME280;58588;48.102;19.682;2023-04-27T10:53:24;99747.38;;;14.67;39.29
70930;BME280;58588;48.102;19.682;2023-04-27T10:56:26;99740.06;;;15.34;39.21
70930;BME280;58588;48.102;19.682;2023-04-27T10:59:28;99741.97;;;15.33;38.86
70930;BME280;58588;48.102;19.682;2023-04-27T11:02:30;99742.34;;;15.50;36.97
70930;BME280;58588;48.102;19.682;2023-04-27T11:05:34;99746.72;;;15.77;40.41
70930;BME280;58588;48.102;19.682;2023-04-27T11:08:43;99739.84;;;15.68;42.90
70930;BME280;58588;48.102;19.682;2023-04-27T11:11:45;99741.19;;;16.04;41.95
70930;BME280;58588;48.102;19.682;2023-04-27T11:14:47;99740.31;;;16.10;39.53
70930;BME280;58588;48.102;19.682;2023-04-27T11:17:49;99745.00;;;15.96;37.72
70930;BME280;58588;48.102;19.682;2023-04-27T11:20:54;99742.50;;;15.82;36.03
70930;BME280;58588;48.102;19.682;2023-04-27T11:24:07;99738.19;;;15.67;38.56
70930;BME280;58588;48.102;19.682;2023-04-27T11:27:09;99738.00;;;15.03;38.81
70930;BME280;58588;48.102;19.682;2023-04-27T11:30:19;99734.84;;;14.79;38.53
70930;BME280;58588;48.102;19.682;2023-04-27T11:33:21;99732.34;;;14.58;40.10
70930;BME280;58588;48.102;19.682;2023-04-27T11:36:25;99730.03;;;14.68;39.24
70930;BME280;58588;48.102;19.682;2023-04-27T11:39:27;99724.00;;;14.72;36.91
70930;BME280;58588;48.102;19.682;2023-04-27T11:42:30;99725.03;;;14.98;36.72
70930;BME280;58588;48.102;19.682;2023-04-27T11:45:32;99724.44;;;14.69;35.88
70930;BME280;58588;48.102;19.682;2023-04-27T11:48:35;99717.31;;;15.28;39.37
70930;BME280;58588;48.102;19.682;2023-04-27T11:51:39;99721.66;;;16.58;40.56
70930;BME280;58588;48.102;19.682;2023-04-27T11:54:46;99705.06;;;16.98;36.38
70930;BME280;58588;48.102;19.682;2023-04-27T11:57:54;99712.25;;;16.54;36.81
70930;BME280;58588;48.102;19.682;2023-04-27T12:00:56;99716.91;;;16.47;35.40
70930;BME280;58588;48.102;19.682;2023-04-27T12:03:59;99713.25;;;15.77;40.17
70930;BME280;58588;48.102;19.682;2023-04-27T12:07:03;99711.38;;;15.84;38.03
70930;BME280;58588;48.102;19.682;2023-04-27T12:10:06;99713.31;;;16.15;36.77
70930;BME280;58588;48.102;19.682;2023-04-27T12:13:08;99701.28;;;16.68;35.02
70930;BME280;58588;48.102;19.682;2023-04-27T12:16:11;99693.34;;;16.98;38.47
70930;BME280;58588;48.102;19.682;2023-04-27T12:19:13;99707.50;;;16.05;38.40
70930;BME280;58588;48.102;19.682;2023-04-27T12:22:16;99701.00;;;15.41;40.97
70930;BME280;58588;48.102;19.682;2023-04-27T12:25:18;99715.50;;;15.93;38.68
70930;BME280;58588;48.102;19.682;2023-04-27T12:28:20;99710.25;;;16.37;34.77
70930;BME280;58588;48.102;19.682;2023-04-27T12:31:23;99700.66;;;16.97;35.01
70930;BME280;58588;48.102;19.682;2023-04-27T12:34:25;99705.03;;;17.85;36.95
70930;BME280;58588;48.102;19.682;2023-04-27T12:37:29;99705.59;;;17.50;33.94
70930;BME280;58588;48.102;19.682;2023-04-27T12:40:32;99703.47;;;17.09;35.34
70930;BME280;58588;48.102;19.682;2023-04-27T12:43:34;99706.91;;;17.04;35.09
70930;BME280;58588;48.102;19.682;2023-04-27T12:46:37;99704.31;;;16.84;33.82
70930;BME280;58588;48.102;19.682;2023-04-27T12:49:39;99698.97;;;17.21;32.30
70930;BME280;58588;48.102;19.682;2023-04-27T12:52:43;99700.88;;;16.71;32.81
70930;BME280;58588;48.102;19.682;2023-04-27T12:55:45;99705.28;;;16.65;35.09
70930;BME280;58588;48.102;19.682;2023-04-27T12:58:47;99709.56;;;15.38;34.70
70930;BME280;58588;48.102;19.682;2023-04-27T13:01:49;99704.66;;;16.25;35.90
70930;BME280;58588;48.102;19.682;2023-04-27T13:04:52;99700.66;;;16.66;35.20
70930;BME280;58588;48.102;19.682;2023-04-27T13:07:57;99700.81;;;17.02;37.49
70930;BME280;58588;48.102;19.682;2023-04-27T13:11:00;99696.84;;;17.66;33.28
70930;BME280;58588;48.102;19.682;2023-04-27T13:14:02;99692.44;;;17.65;33.90
70930;BME280;58588;48.102;19.682;2023-04-27T13:17:04;99690.22;;;17.37;36.75
70930;BME280;58588;48.102;19.682;2023-04-27T13:20:07;99688.88;;;18.02;37.02
70930;BME280;58588;48.102;19.682;2023-04-27T13:23:11;99693.06;;;18.34;38.19
70930;BME280;58588;48.102;19.682;2023-04-27T13:26:13;99685.66;;;18.65;32.29
70930;BME280;58588;48.102;19.682;2023-04-27T13:29:16;99672.13;;;17.98;32.86
70930;BME280;58588;48.102;19.682;2023-04-27T13:32:18;99683.91;;;17.19;34.33
70930;BME280;58588;48.102;19.682;2023-04-27T13:35:20;99695.00;;;16.99;32.49
70930;BME280;58588;48.102;19.682;2023-04-27T13:38:24;99690.72;;;17.09;32.23
70930;BME280;58588;48.102;19.682;2023-04-27T13:41:26;99692.84;;;16.06;34.19
70930;BME280;58588;48.102;19.682;2023-04-27T13:44:28;99684.88;;;16.49;36.06
70930;BME280;58588;48.102;19.682;2023-04-27T13:47:31;99675.09;;;17.42;34.57
70930;BME280;58588;48.102;19.682;2023-04-27T13:50:36;99683.88;;;17.99;33.64
70930;BME280;58588;48.102;19.682;2023-04-27T13:53:40;99689.28;;;18.35;32.37
70930;BME280;58588;48.102;19.682;2023-04-27T13:56:42;99683.34;;;18.38;31.22
70930;BME280;58588;48.102;19.682;2023-04-27T13:59:44;99678.72;;;18.09;33.44
70930;BME280;58588;48.102;19.682;2023-04-27T14:02:46;99679.47;;;17.43;34.40
70930;BME280;58588;48.102;19.682;2023-04-27T14:05:48;99678.47;;;16.94;41.06
70930;BME280;58588;48.102;19.682;2023-04-27T14:08:52;99683.66;;;16.77;35.27
70930;BME280;58588;48.102;19.682;2023-04-27T14:11:54;99679.09;;;16.64;32.79
70930;BME280;58588;48.102;19.682;2023-04-27T14:14:57;99679.59;;;17.73;32.32
70930;BME280;58588;48.102;19.682;2023-04-27T14:17:59;99676.22;;;18.07;34.27
70930;BME280;58588;48.102;19.682;2023-04-27T14:21:01;99681.91;;;17.69;33.59
70930;BME280;58588;48.102;19.682;2023-04-27T14:24:05;99682.94;;;18.05;35.86
70930;BME280;58588;48.102;19.682;2023-04-27T14:27:07;99683.88;;;17.99;33.16
70930;BME280;58588;48.102;19.682;2023-04-27T14:30:09;99689.91;;;18.19;35.72
70930;BME280;58588;48.102;19.682;2023-04-27T14:33:11;99683.03;;;17.98;33.90
70930;BME280;58588;48.102;19.682;2023-04-27T14:36:13;99680.03;;;17.70;31.89
70930;BME280;58588;48.102;19.682;2023-04-27T14:39:19;99684.75;;;18.29;31.57
70930;BME280;58588;48.102;19.682;2023-04-27T14:42:21;99680.38;;;18.40;34.95
70930;BME280;58588;48.102;19.682;2023-04-27T14:45:23;99684.41;;;18.37;32.23
70930;BME280;58588;48.102;19.682;2023-04-27T14:48:25;99688.50;;;19.12;32.10
70930;BME280;58588;48.102;19.682;2023-04-27T14:51:27;99687.22;;;19.26;28.71
70930;BME280;58588;48.102;19.682;2023-04-27T14:54:31;99686.47;;;19.19;28.47
70930;BME280;58588;48.102;19.682;2023-04-27T14:57:35;99688.16;;;19.43;31.34
70930;BME280;58588;48.102;19.682;2023-04-27T15:00:37;99698.72;;;19.75;29.44
70930;BME280;58588;48.102;19.682;2023-04-27T15:03:39;99693.31;;;20.03;33.09
70930;BME280;58588;48.102;19.682;2023-04-27T15:10:10;99695.84;;;17.98;31.19
70930;BME280;58588;48.102;19.682;2023-04-27T15:13:12;99692.97;;;17.92;32.15
70930;BME280;58588;48.102;19.682;2023-04-27T15:16:14;99690.78;;;18.01;32.52
70930;BME280;58588;48.102;19.682;2023-04-27T15:19:16;99701.31;;;18.88;35.00
70930;BME280;58588;48.102;19.682;2023-04-27T15:22:18;99697.78;;;19.11;33.43
70930;BME280;58588;48.102;19.682;2023-04-27T15:25:24;99693.38;;;18.98;31.90
70930;BME280;58588;48.102;19.682;2023-04-27T15:28:26;99696.75;;;20.84;29.68
70930;BME280;58588;48.102;19.682;2023-04-27T15:31:28;99695.25;;;21.44;29.91
70930;BME280;58588;48.102;19.682;2023-04-27T15:34:30;99692.44;;;23.03;27.46
70930;BME280;58588;48.102;19.682;2023-04-27T15:37:34;99696.97;;;23.61;26.32
70930;BME280;58588;48.102;19.682;2023-04-27T15:40:38;99688.28;;;21.53;26.58
70930;BME280;58588;48.102;19.682;2023-04-27T15:43:40;99694.78;;;22.35;25.63
70930;BME280;58588;48.102;19.682;2023-04-27T15:46:42;99689.94;;;24.59;24.34
70930;BME280;58588;48.102;19.682;2023-04-27T15:49:44;99685.63;;;23.95;24.52
70930;BME280;58588;48.102;19.682;2023-04-27T15:52:46;99686.38;;;24.63;22.63
70930;BME280;58588;48.102;19.682;2023-04-27T15:55:50;99683.25;;;23.24;24.57
70930;BME280;58588;48.102;19.682;2023-04-27T15:58:52;99680.16;;;21.63;25.27